Detall de PIREP

Printer-friendly versionPDF version

[2012/10/12 13:29:00]
Flight IATA:CT1005
Pilot Number:037
Company ICAO:CAT
Aircraft Type:B752/E
PAX:99
Aircraft Registration:PAX
Departing Airport: ESSA
Destination Airport: EPWA
Alternate Airport:EPKK
Online: VATSIM
Route:TRS M607 PENOR N133 GRUDA L621 SORIX
Flight Level:F330
No Slew and time accel
No pause
Crash detect
Detect pilot in Cockpit between each 30 and 45 minutes
13:29 Zero fuel Weight: 165260 Lbs, Fuel Weight: 23514 Lbs
13:29 VATSIM:ESSA 121250Z 03012KT 9999 SCT030 BKN035 08/04 Q1016 NOSIG
13:29 VATSIM:EPWA 121300Z VRB03KT 9999 FEW026 10/03 Q1016 NOSIG
13:40 Parking Brakes off
13:45 Take-off
13:45 Take off Weight: 187866 Lbs
13:45 Wind: 017º @ 011 Knots Heading: 073º
13:45 POS N59º 39´ 43´´ E017º 57´ 47´´
13:45 Gear Up: 191 Knots
13:45 Flaps:2 at 191 Knots
13:46 Flaps:1 at 205 Knots
13:46 Flaps:0 at 224 Knots
14:00 Wind:014º@020 Knots Heading: 182º Ground Speed: 446 Knots Altitude 23569 ft
14:04 TOC
14:04 Fuel Weight: 18503 Lb
14:15 Wind:065º@022 Knots Heading: 180º Ground Speed: 479 Knots Altitude 33044 ft
14:30 Wind:122º@017 Knots Heading: 154º Ground Speed: 467 Knots Altitude 33018 ft
14:42 TOD
14:42 Fuel Weight: 12338 Lb
14:45 Wind:115º@023 Knots Heading: 141º Ground Speed: 346 Knots Altitude 26932 ft
15:00 Wind:111º@011 Knots Heading: 141º Ground Speed: 240 Knots Altitude 7112 ft
15:06 Flaps:1 at 203 Knots
15:10 Flaps:2 at 189 Knots
15:11 Flaps:3 at 174 Knots
15:12 Flaps:4 at 158 Knots
15:12 Gear Down: 157 Knots
15:12 Flaps:5 at 146 Knots
15:13 Flaps:6 at 150 Knots
15:14 TouchDown:Rate -234 ft/min Speed: 138 Knots
15:14 VATSIM:EPWA 121500Z 12005KT CAVOK 09/04 Q1015 NOSIG
15:14 Land
15:14 Wind:120º@005 Knots
15:14 Heading: 113º
15:14 Flight Duration: 01:29
15:14 Landing Weight: 175185 Lbs
15:14 POS N52º 09´ 56´´ E020º 58´ 04´´
15:20 Parking brakes on
15:20 Block to Block Duration: 01:40
15:20 Final Fuel: 9391 Lbls
15:20 Spent Fuel: 14122 Lbls
15:20 Flight Length: 450 NM
15:20 TOD Land Length: 134 NM

Exportar CSV

Powered by Drupal - Modified by Danger4k